sensor_id;sensor_type;location;lat;lon;timestamp;P1;durP1;ratioP1;P2;durP2;ratioP2
65737;SDS011;52478;51.844;6.582;2024-02-14T00:06:08;5.38;;;1.50;;
65737;SDS011;52478;51.844;6.582;2024-02-14T00:08:34;7.43;;;1.88;;
65737;SDS011;52478;51.844;6.582;2024-02-14T00:11:03;5.60;;;1.80;;
65737;SDS011;52478;51.844;6.582;2024-02-14T00:13:29;5.25;;;1.50;;
65737;SDS011;52478;51.844;6.582;2024-02-14T00:15:59;4.38;;;1.80;;
65737;SDS011;52478;51.844;6.582;2024-02-14T00:18:25;5.28;;;2.00;;
65737;SDS011;52478;51.844;6.582;2024-02-14T00:20:52;4.85;;;1.90;;
65737;SDS011;52478;51.844;6.582;2024-02-14T00:23:20;7.20;;;1.88;;
65737;SDS011;52478;51.844;6.582;2024-02-14T00:25:46;4.78;;;1.67;;
65737;SDS011;52478;51.844;6.582;2024-02-14T00:28:13;4.93;;;1.70;;
65737;SDS011;52478;51.844;6.582;2024-02-14T00:30:39;6.15;;;1.50;;
65737;SDS011;52478;51.844;6.582;2024-02-14T00:33:06;5.72;;;1.50;;
65737;SDS011;52478;51.844;6.582;2024-02-14T00:35:32;5.25;;;1.50;;
65737;SDS011;52478;51.844;6.582;2024-02-14T00:37:59;4.55;;;1.52;;
65737;SDS011;52478;51.844;6.582;2024-02-14T00:40:27;4.35;;;1.60;;
65737;SDS011;52478;51.844;6.582;2024-02-14T00:42:53;4.80;;;1.55;;
65737;SDS011;52478;51.844;6.582;2024-02-14T00:45:20;9.57;;;1.73;;
65737;SDS011;52478;51.844;6.582;2024-02-14T00:47:46;4.82;;;1.60;;
65737;SDS011;52478;51.844;6.582;2024-02-14T00:50:13;4.45;;;1.70;;
65737;SDS011;52478;51.844;6.582;2024-02-14T00:52:39;4.55;;;1.33;;
65737;SDS011;52478;51.844;6.582;2024-02-14T00:55:07;5.07;;;1.50;;
65737;SDS011;52478;51.844;6.582;2024-02-14T00:57:35;5.40;;;1.60;;
65737;SDS011;52478;51.844;6.582;2024-02-14T01:00:02;5.07;;;1.42;;
65737;SDS011;52478;51.844;6.582;2024-02-14T01:02:30;5.70;;;1.75;;
65737;SDS011;52478;51.844;6.582;2024-02-14T01:04:57;7.88;;;1.60;;
65737;SDS011;52478;51.844;6.582;2024-02-14T01:07:24;5.85;;;1.75;;
65737;SDS011;52478;51.844;6.582;2024-02-14T01:09:50;5.55;;;1.50;;
65737;SDS011;52478;51.844;6.582;2024-02-14T01:12:16;3.92;;;1.40;;
65737;SDS011;52478;51.844;6.582;2024-02-14T01:14:44;5.68;;;1.88;;
65737;SDS011;52478;51.844;6.582;2024-02-14T01:17:11;3.95;;;1.30;;
65737;SDS011;52478;51.844;6.582;2024-02-14T01:19:37;4.30;;;1.40;;
65737;SDS011;52478;51.844;6.582;2024-02-14T01:22:04;4.30;;;1.58;;
65737;SDS011;52478;51.844;6.582;2024-02-14T01:24:33;4.90;;;1.40;;
65737;SDS011;52478;51.844;6.582;2024-02-14T01:27:00;4.45;;;1.42;;
65737;SDS011;52478;51.844;6.582;2024-02-14T01:29:27;4.38;;;1.55;;
65737;SDS011;52478;51.844;6.582;2024-02-14T01:31:55;4.70;;;1.40;;
65737;SDS011;52478;51.844;6.582;2024-02-14T01:34:22;4.80;;;1.30;;
65737;SDS011;52478;51.844;6.582;2024-02-14T01:36:49;4.50;;;1.60;;
65737;SDS011;52478;51.844;6.582;2024-02-14T01:39:15;5.28;;;1.42;;
65737;SDS011;52478;51.844;6.582;2024-02-14T01:41:44;3.95;;;1.60;;
65737;SDS011;52478;51.844;6.582;2024-02-14T01:44:13;5.50;;;1.60;;
65737;SDS011;52478;51.844;6.582;2024-02-14T01:46:39;5.35;;;1.40;;
65737;SDS011;52478;51.844;6.582;2024-02-14T01:49:07;3.58;;;1.20;;
65737;SDS011;52478;51.844;6.582;2024-02-14T01:51:34;4.72;;;1.60;;
65737;SDS011;52478;51.844;6.582;2024-02-14T01:56:28;4.28;;;1.20;;
65737;SDS011;52478;51.844;6.582;2024-02-14T01:58:55;3.90;;;1.40;;
65737;SDS011;52478;51.844;6.582;2024-02-14T02:01:22;4.22;;;1.40;;
65737;SDS011;52478;51.844;6.582;2024-02-14T02:03:50;5.80;;;1.42;;
65737;SDS011;52478;51.844;6.582;2024-02-14T02:06:17;6.63;;;1.40;;
65737;SDS011;52478;51.844;6.582;2024-02-14T02:08:44;2.85;;;1.13;;
65737;SDS011;52478;51.844;6.582;2024-02-14T02:11:11;3.83;;;1.35;;
65737;SDS011;52478;51.844;6.582;2024-02-14T02:13:39;4.45;;;1.50;;
65737;SDS011;52478;51.844;6.582;2024-02-14T02:16:06;4.60;;;1.10;;
65737;SDS011;52478;51.844;6.582;2024-02-14T02:18:33;4.60;;;1.25;;
65737;SDS011;52478;51.844;6.582;2024-02-14T02:20:59;3.65;;;1.17;;
65737;SDS011;52478;51.844;6.582;2024-02-14T02:23:33;4.28;;;1.40;;
65737;SDS011;52478;51.844;6.582;2024-02-14T02:25:59;4.57;;;1.13;;
65737;SDS011;52478;51.844;6.582;2024-02-14T02:28:26;3.63;;;1.50;;
65737;SDS011;52478;51.844;6.582;2024-02-14T02:30:52;5.07;;;1.30;;
65737;SDS011;52478;51.844;6.582;2024-02-14T02:33:20;4.22;;;1.42;;
65737;SDS011;52478;51.844;6.582;2024-02-14T02:35:47;5.38;;;1.40;;
65737;SDS011;52478;51.844;6.582;2024-02-14T02:38:15;6.90;;;1.73;;
65737;SDS011;52478;51.844;6.582;2024-02-14T02:40:42;5.13;;;1.70;;
65737;SDS011;52478;51.844;6.582;2024-02-14T02:43:09;6.05;;;1.40;;
65737;SDS011;52478;51.844;6.582;2024-02-14T02:45:36;5.22;;;1.45;;
65737;SDS011;52478;51.844;6.582;2024-02-14T02:48:03;5.32;;;1.40;;
65737;SDS011;52478;51.844;6.582;2024-02-14T02:50:29;4.22;;;1.33;;
65737;SDS011;52478;51.844;6.582;2024-02-14T02:52:56;5.03;;;1.52;;
65737;SDS011;52478;51.844;6.582;2024-02-14T02:55:22;4.78;;;1.40;;
65737;SDS011;52478;51.844;6.582;2024-02-14T02:57:50;4.25;;;1.20;;
65737;SDS011;52478;51.844;6.582;2024-02-14T03:00:18;3.55;;;1.40;;
65737;SDS011;52478;51.844;6.582;2024-02-14T03:02:46;4.30;;;1.58;;
65737;SDS011;52478;51.844;6.582;2024-02-14T03:05:14;4.30;;;1.45;;
65737;SDS011;52478;51.844;6.582;2024-02-14T03:07:43;3.92;;;1.20;;
65737;SDS011;52478;51.844;6.582;2024-02-14T03:10:12;4.35;;;1.30;;
65737;SDS011;52478;51.844;6.582;2024-02-14T03:12:39;3.95;;;1.50;;
65737;SDS011;52478;51.844;6.582;2024-02-14T03:15:08;5.10;;;1.48;;
65737;SDS011;52478;51.844;6.582;2024-02-14T03:17:35;4.07;;;1.40;;
65737;SDS011;52478;51.844;6.582;2024-02-14T03:20:02;4.00;;;1.20;;
65737;SDS011;52478;51.844;6.582;2024-02-14T03:22:32;4.65;;;1.30;;
65737;SDS011;52478;51.844;6.582;2024-02-14T03:24:58;3.70;;;1.50;;
65737;SDS011;52478;51.844;6.582;2024-02-14T03:27:25;4.05;;;1.30;;
65737;SDS011;52478;51.844;6.582;2024-02-14T03:29:51;4.20;;;1.30;;
65737;SDS011;52478;51.844;6.582;2024-02-14T03:32:21;5.07;;;1.67;;
65737;SDS011;52478;51.844;6.582;2024-02-14T03:34:48;6.38;;;1.73;;
65737;SDS011;52478;51.844;6.582;2024-02-14T03:37:14;4.70;;;1.60;;
65737;SDS011;52478;51.844;6.582;2024-02-14T03:39:41;4.53;;;1.35;;
65737;SDS011;52478;51.844;6.582;2024-02-14T03:42:07;4.97;;;1.50;;
65737;SDS011;52478;51.844;6.582;2024-02-14T03:44:34;4.35;;;1.45;;
65737;SDS011;52478;51.844;6.582;2024-02-14T03:47:03;5.40;;;1.48;;
65737;SDS011;52478;51.844;6.582;2024-02-14T03:49:31;5.20;;;1.60;;
65737;SDS011;52478;51.844;6.582;2024-02-14T03:51:57;4.43;;;1.02;;
65737;SDS011;52478;51.844;6.582;2024-02-14T03:54:26;3.72;;;1.30;;
65737;SDS011;52478;51.844;6.582;2024-02-14T03:56:53;4.75;;;1.70;;
65737;SDS011;52478;51.844;6.582;2024-02-14T03:59:20;4.53;;;1.40;;
65737;SDS011;52478;51.844;6.582;2024-02-14T04:01:49;4.25;;;1.30;;
65737;SDS011;52478;51.844;6.582;2024-02-14T04:04:18;4.15;;;1.30;;
65737;SDS011;52478;51.844;6.582;2024-02-14T04:06:46;4.95;;;1.40;;
65737;SDS011;52478;51.844;6.582;2024-02-14T04:09:12;4.43;;;1.33;;
65737;SDS011;52478;51.844;6.582;2024-02-14T04:11:39;3.90;;;1.23;;
65737;SDS011;52478;51.844;6.582;2024-02-14T04:14:05;5.10;;;1.30;;
65737;SDS011;52478;51.844;6.582;2024-02-14T04:16:32;4.55;;;1.42;;
65737;SDS011;52478;51.844;6.582;2024-02-14T04:18:59;4.28;;;1.40;;
65737;SDS011;52478;51.844;6.582;2024-02-14T04:21:25;9.10;;;1.15;;
65737;SDS011;52478;51.844;6.582;2024-02-14T04:23:53;4.10;;;1.50;;
65737;SDS011;52478;51.844;6.582;2024-02-14T04:26:19;4.93;;;1.60;;
65737;SDS011;52478;51.844;6.582;2024-02-14T04:28:46;3.58;;;1.20;;
65737;SDS011;52478;51.844;6.582;2024-02-14T04:31:12;4.95;;;1.27;;
65737;SDS011;52478;51.844;6.582;2024-02-14T04:33:39;3.95;;;1.20;;
65737;SDS011;52478;51.844;6.582;2024-02-14T04:36:06;3.78;;;1.30;;
65737;SDS011;52478;51.844;6.582;2024-02-14T04:38:32;4.30;;;1.30;;
65737;SDS011;52478;51.844;6.582;2024-02-14T04:41:01;4.70;;;1.40;;
65737;SDS011;52478;51.844;6.582;2024-02-14T04:43:27;3.95;;;1.42;;
65737;SDS011;52478;51.844;6.582;2024-02-14T04:45:54;5.55;;;1.45;;
65737;SDS011;52478;51.844;6.582;2024-02-14T04:48:20;4.95;;;1.50;;
65737;SDS011;52478;51.844;6.582;2024-02-14T04:50:47;3.40;;;1.20;;
65737;SDS011;52478;51.844;6.582;2024-02-14T04:53:14;4.13;;;1.10;;
65737;SDS011;52478;51.844;6.582;2024-02-14T04:55:41;4.70;;;1.50;;
65737;SDS011;52478;51.844;6.582;2024-02-14T04:58:09;3.65;;;1.17;;
65737;SDS011;52478;51.844;6.582;2024-02-14T05:00:36;4.40;;;1.50;;
65737;SDS011;52478;51.844;6.582;2024-02-14T05:03:03;4.40;;;1.20;;
65737;SDS011;52478;51.844;6.582;2024-02-14T05:05:31;3.60;;;1.20;;
65737;SDS011;52478;51.844;6.582;2024-02-14T05:07:58;4.32;;;1.45;;
65737;SDS011;52478;51.844;6.582;2024-02-14T05:10:25;4.07;;;1.25;;
65737;SDS011;52478;51.844;6.582;2024-02-14T05:12:51;3.97;;;1.60;;
65737;SDS011;52478;51.844;6.582;2024-02-14T05:15:19;5.22;;;1.25;;
65737;SDS011;52478;51.844;6.582;2024-02-14T05:17:46;4.80;;;1.27;;
65737;SDS011;52478;51.844;6.582;2024-02-14T05:20:15;4.97;;;1.30;;
65737;SDS011;52478;51.844;6.582;2024-02-14T05:22:41;4.75;;;1.20;;
65737;SDS011;52478;51.844;6.582;2024-02-14T05:25:08;4.60;;;1.40;;
65737;SDS011;52478;51.844;6.582;2024-02-14T05:27:35;6.25;;;1.90;;
65737;SDS011;52478;51.844;6.582;2024-02-14T05:30:02;4.78;;;1.50;;
65737;SDS011;52478;51.844;6.582;2024-02-14T05:32:31;4.80;;;1.30;;
65737;SDS011;52478;51.844;6.582;2024-02-14T05:34:58;3.67;;;1.23;;
65737;SDS011;52478;51.844;6.582;2024-02-14T05:37:25;6.97;;;1.52;;
65737;SDS011;52478;51.844;6.582;2024-02-14T05:39:52;5.28;;;1.23;;
65737;SDS011;52478;51.844;6.582;2024-02-14T05:42:19;5.40;;;1.73;;
65737;SDS011;52478;51.844;6.582;2024-02-14T05:44:46;4.88;;;1.60;;
65737;SDS011;52478;51.844;6.582;2024-02-14T05:47:13;5.38;;;1.23;;
65737;SDS011;52478;51.844;6.582;2024-02-14T05:49:40;4.18;;;1.50;;
65737;SDS011;52478;51.844;6.582;2024-02-14T05:52:07;4.05;;;1.65;;
65737;SDS011;52478;51.844;6.582;2024-02-14T05:54:34;4.97;;;1.45;;
65737;SDS011;52478;51.844;6.582;2024-02-14T05:57:01;5.28;;;1.65;;
65737;SDS011;52478;51.844;6.582;2024-02-14T05:59:28;12.27;;;1.73;;
65737;SDS011;52478;51.844;6.582;2024-02-14T06:01:55;6.45;;;1.40;;
65737;SDS011;52478;51.844;6.582;2024-02-14T06:04:22;4.72;;;1.27;;
65737;SDS011;52478;51.844;6.582;2024-02-14T06:06:50;7.88;;;1.42;;
65737;SDS011;52478;51.844;6.582;2024-02-14T06:09:16;4.75;;;1.20;;
65737;SDS011;52478;51.844;6.582;2024-02-14T06:11:43;6.25;;;1.55;;
65737;SDS011;52478;51.844;6.582;2024-02-14T06:14:09;4.35;;;1.30;;
65737;SDS011;52478;51.844;6.582;2024-02-14T06:16:36;4.78;;;1.40;;
65737;SDS011;52478;51.844;6.582;2024-02-14T06:19:03;5.38;;;1.30;;
65737;SDS011;52478;51.844;6.582;2024-02-14T06:21:31;5.90;;;1.42;;
65737;SDS011;52478;51.844;6.582;2024-02-14T06:23:59;4.68;;;1.58;;
65737;SDS011;52478;51.844;6.582;2024-02-14T06:26:26;4.70;;;1.45;;
65737;SDS011;52478;51.844;6.582;2024-02-14T06:28:52;4.25;;;1.42;;
65737;SDS011;52478;51.844;6.582;2024-02-14T06:31:19;5.43;;;1.73;;
65737;SDS011;52478;51.844;6.582;2024-02-14T06:33:46;5.75;;;1.45;;
65737;SDS011;52478;51.844;6.582;2024-02-14T06:36:12;4.40;;;1.33;;
65737;SDS011;52478;51.844;6.582;2024-02-14T06:38:39;4.82;;;1.40;;
65737;SDS011;52478;51.844;6.582;2024-02-14T06:41:07;4.20;;;1.40;;
65737;SDS011;52478;51.844;6.582;2024-02-14T06:43:33;4.35;;;1.40;;
65737;SDS011;52478;51.844;6.582;2024-02-14T06:46:01;27.65;;;5.38;;
65737;SDS011;52478;51.844;6.582;2024-02-14T06:48:27;42.45;;;9.95;;
65737;SDS011;52478;51.844;6.582;2024-02-14T06:50:54;32.75;;;8.32;;
65737;SDS011;52478;51.844;6.582;2024-02-14T06:53:20;23.13;;;5.55;;
65737;SDS011;52478;51.844;6.582;2024-02-14T06:55:47;24.73;;;5.70;;
65737;SDS011;52478;51.844;6.582;2024-02-14T06:58:14;24.05;;;4.88;;
65737;SDS011;52478;51.844;6.582;2024-02-14T07:00:41;17.58;;;4.88;;
65737;SDS011;52478;51.844;6.582;2024-02-14T07:03:07;21.13;;;4.57;;
65737;SDS011;52478;51.844;6.582;2024-02-14T07:05:34;18.25;;;4.50;;
65737;SDS011;52478;51.844;6.582;2024-02-14T07:08:00;18.90;;;4.28;;
65737;SDS011;52478;51.844;6.582;2024-02-14T07:10:27;12.90;;;3.83;;
65737;SDS011;52478;51.844;6.582;2024-02-14T07:12:54;13.93;;;3.53;;
65737;SDS011;52478;51.844;6.582;2024-02-14T07:15:21;15.60;;;3.40;;
65737;SDS011;52478;51.844;6.582;2024-02-14T07:17:51;12.75;;;3.00;;
65737;SDS011;52478;51.844;6.582;2024-02-14T07:20:18;11.50;;;2.72;;
65737;SDS011;52478;51.844;6.582;2024-02-14T07:25:12;10.45;;;2.70;;
65737;SDS011;52478;51.844;6.582;2024-02-14T07:27:39;10.45;;;2.72;;
65737;SDS011;52478;51.844;6.582;2024-02-14T07:30:06;7.47;;;2.03;;
65737;SDS011;52478;51.844;6.582;2024-02-14T07:32:34;10.93;;;2.40;;
65737;SDS011;52478;51.844;6.582;2024-02-14T07:35:03;9.52;;;2.30;;
65737;SDS011;52478;51.844;6.582;2024-02-14T07:37:30;7.88;;;2.42;;
65737;SDS011;52478;51.844;6.582;2024-02-14T07:39:57;7.57;;;2.10;;
65737;SDS011;52478;51.844;6.582;2024-02-14T07:42:23;7.15;;;2.00;;
65737;SDS011;52478;51.844;6.582;2024-02-14T07:44:50;6.43;;;1.85;;
65737;SDS011;52478;51.844;6.582;2024-02-14T07:47:16;12.40;;;2.35;;
65737;SDS011;52478;51.844;6.582;2024-02-14T07:49:45;7.65;;;2.13;;
65737;SDS011;52478;51.844;6.582;2024-02-14T07:52:12;7.38;;;2.17;;
65737;SDS011;52478;51.844;6.582;2024-02-14T07:54:38;8.07;;;2.03;;
65737;SDS011;52478;51.844;6.582;2024-02-14T07:57:05;6.70;;;2.10;;
65737;SDS011;52478;51.844;6.582;2024-02-14T07:59:31;7.20;;;1.95;;
65737;SDS011;52478;51.844;6.582;2024-02-14T08:01:58;6.38;;;1.65;;
65737;SDS011;52478;51.844;6.582;2024-02-14T08:04:24;7.00;;;2.08;;
65737;SDS011;52478;51.844;6.582;2024-02-14T08:06:52;8.05;;;2.10;;
65737;SDS011;52478;51.844;6.582;2024-02-14T08:09:19;5.57;;;1.67;;
65737;SDS011;52478;51.844;6.582;2024-02-14T08:11:45;5.78;;;1.80;;
65737;SDS011;52478;51.844;6.582;2024-02-14T08:14:12;6.45;;;1.52;;
65737;SDS011;52478;51.844;6.582;2024-02-14T08:16:38;6.57;;;1.92;;
65737;SDS011;52478;51.844;6.582;2024-02-14T08:19:05;5.75;;;1.90;;
65737;SDS011;52478;51.844;6.582;2024-02-14T08:21:31;6.07;;;1.70;;
65737;SDS011;52478;51.844;6.582;2024-02-14T08:23:59;6.20;;;1.60;;
65737;SDS011;52478;51.844;6.582;2024-02-14T08:26:26;6.80;;;1.73;;
65737;SDS011;52478;51.844;6.582;2024-02-14T08:28:52;5.75;;;1.60;;
65737;SDS011;52478;51.844;6.582;2024-02-14T08:31:19;6.57;;;1.70;;
65737;SDS011;52478;51.844;6.582;2024-02-14T08:33:46;5.22;;;1.63;;
65737;SDS011;52478;51.844;6.582;2024-02-14T08:36:13;4.60;;;1.60;;
65737;SDS011;52478;51.844;6.582;2024-02-14T08:38:41;5.95;;;1.63;;
65737;SDS011;52478;51.844;6.582;2024-02-14T08:41:09;4.53;;;1.67;;
65737;SDS011;52478;51.844;6.582;2024-02-14T08:43:36;4.63;;;1.58;;
65737;SDS011;52478;51.844;6.582;2024-02-14T08:46:02;6.82;;;1.65;;
65737;SDS011;52478;51.844;6.582;2024-02-14T08:48:29;5.63;;;1.63;;
65737;SDS011;52478;51.844;6.582;2024-02-14T08:50:59;4.70;;;1.90;;
65737;SDS011;52478;51.844;6.582;2024-02-14T08:53:25;5.82;;;1.90;;
65737;SDS011;52478;51.844;6.582;2024-02-14T08:55:52;4.93;;;1.52;;
65737;SDS011;52478;51.844;6.582;2024-02-14T08:58:20;5.18;;;1.80;;
65737;SDS011;52478;51.844;6.582;2024-02-14T09:00:47;4.90;;;1.70;;
65737;SDS011;52478;51.844;6.582;2024-02-14T09:08:07;5.13;;;1.63;;
65737;SDS011;52478;51.844;6.582;2024-02-14T09:10:34;5.97;;;1.65;;
65737;SDS011;52478;51.844;6.582;2024-02-14T09:13:00;5.10;;;1.60;;
65737;SDS011;52478;51.844;6.582;2024-02-14T09:15:28;4.47;;;1.33;;
65737;SDS011;52478;51.844;6.582;2024-02-14T09:17:56;5.32;;;1.40;;
65737;SDS011;52478;51.844;6.582;2024-02-14T09:20:22;6.20;;;1.60;;
65737;SDS011;52478;51.844;6.582;2024-02-14T09:22:49;4.00;;;1.17;;
65737;SDS011;52478;51.844;6.582;2024-02-14T09:25:15;5.10;;;1.58;;
65737;SDS011;52478;51.844;6.582;2024-02-14T09:27:42;6.43;;;1.80;;
65737;SDS011;52478;51.844;6.582;2024-02-14T09:30:10;4.30;;;1.27;;
65737;SDS011;52478;51.844;6.582;2024-02-14T09:32:38;6.43;;;1.48;;
65737;SDS011;52478;51.844;6.582;2024-02-14T09:35:05;5.43;;;1.35;;
65737;SDS011;52478;51.844;6.582;2024-02-14T09:37:32;4.13;;;1.42;;
65737;SDS011;52478;51.844;6.582;2024-02-14T09:39:59;4.20;;;1.48;;
65737;SDS011;52478;51.844;6.582;2024-02-14T09:42:27;4.43;;;1.60;;
65737;SDS011;52478;51.844;6.582;2024-02-14T09:44:59;6.45;;;1.40;;
65737;SDS011;52478;51.844;6.582;2024-02-14T09:47:25;4.38;;;1.42;;
65737;SDS011;52478;51.844;6.582;2024-02-14T09:49:57;5.40;;;1.42;;
65737;SDS011;52478;51.844;6.582;2024-02-14T09:52:25;4.95;;;1.83;;
65737;SDS011;52478;51.844;6.582;2024-02-14T09:54:51;4.35;;;1.33;;
65737;SDS011;52478;51.844;6.582;2024-02-14T09:57:18;5.28;;;1.23;;
65737;SDS011;52478;51.844;6.582;2024-02-14T09:59:46;4.05;;;1.27;;
65737;SDS011;52478;51.844;6.582;2024-02-14T10:02:14;5.90;;;1.70;;
65737;SDS011;52478;51.844;6.582;2024-02-14T10:04:42;3.97;;;1.40;;
65737;SDS011;52478;51.844;6.582;2024-02-14T10:07:10;3.97;;;1.30;;
65737;SDS011;52478;51.844;6.582;2024-02-14T10:09:40;5.03;;;1.67;;
65737;SDS011;52478;51.844;6.582;2024-02-14T10:12:07;3.42;;;1.35;;
65737;SDS011;52478;51.844;6.582;2024-02-14T10:14:34;4.13;;;1.10;;
65737;SDS011;52478;51.844;6.582;2024-02-14T10:17:01;4.55;;;1.83;;
65737;SDS011;52478;51.844;6.582;2024-02-14T10:19:28;3.40;;;1.05;;
65737;SDS011;52478;51.844;6.582;2024-02-14T10:21:54;6.25;;;1.50;;
65737;SDS011;52478;51.844;6.582;2024-02-14T10:24:24;4.18;;;1.30;;
65737;SDS011;52478;51.844;6.582;2024-02-14T10:26:51;4.50;;;1.60;;
65737;SDS011;52478;51.844;6.582;2024-02-14T10:29:18;3.42;;;1.02;;
65737;SDS011;52478;51.844;6.582;2024-02-14T10:31:45;4.50;;;1.40;;
65737;SDS011;52478;51.844;6.582;2024-02-14T10:34:12;5.05;;;1.60;;
65737;SDS011;52478;51.844;6.582;2024-02-14T10:36:39;4.82;;;1.50;;
65737;SDS011;52478;51.844;6.582;2024-02-14T10:39:08;4.80;;;1.40;;
65737;SDS011;52478;51.844;6.582;2024-02-14T10:41:37;5.30;;;1.63;;
65737;SDS011;52478;51.844;6.582;2024-02-14T10:44:04;4.10;;;1.33;;
65737;SDS011;52478;51.844;6.582;2024-02-14T10:46:31;3.55;;;1.15;;
65737;SDS011;52478;51.844;6.582;2024-02-14T10:49:02;3.67;;;1.30;;
65737;SDS011;52478;51.844;6.582;2024-02-14T10:51:30;4.70;;;1.40;;
65737;SDS011;52478;51.844;6.582;2024-02-14T10:53:58;4.72;;;1.20;;
65737;SDS011;52478;51.844;6.582;2024-02-14T10:56:27;4.03;;;1.50;;
65737;SDS011;52478;51.844;6.582;2024-02-14T10:58:56;4.53;;;1.58;;
65737;SDS011;52478;51.844;6.582;2024-02-14T11:01:24;4.93;;;1.70;;
65737;SDS011;52478;51.844;6.582;2024-02-14T11:03:52;3.85;;;1.30;;
65737;SDS011;52478;51.844;6.582;2024-02-14T11:06:20;4.95;;;1.45;;
65737;SDS011;52478;51.844;6.582;2024-02-14T11:08:56;4.65;;;1.40;;
65737;SDS011;52478;51.844;6.582;2024-02-14T11:11:27;4.13;;;1.30;;
65737;SDS011;52478;51.844;6.582;2024-02-14T11:13:57;4.47;;;1.40;;
65737;SDS011;52478;51.844;6.582;2024-02-14T11:16:25;5.63;;;1.70;;
65737;SDS011;52478;51.844;6.582;2024-02-14T11:18:53;4.88;;;1.33;;
65737;SDS011;52478;51.844;6.582;2024-02-14T11:21:27;3.97;;;1.50;;
65737;SDS011;52478;51.844;6.582;2024-02-14T11:23:55;4.15;;;1.40;;
65737;SDS011;52478;51.844;6.582;2024-02-14T11:26:24;4.15;;;1.23;;
65737;SDS011;52478;51.844;6.582;2024-02-14T11:29:00;4.10;;;1.30;;
65737;SDS011;52478;51.844;6.582;2024-02-14T11:31:31;3.65;;;1.30;;
65737;SDS011;52478;51.844;6.582;2024-02-14T11:34:02;4.47;;;1.35;;
65737;SDS011;52478;51.844;6.582;2024-02-14T11:36:29;6.78;;;1.50;;
65737;SDS011;52478;51.844;6.582;2024-02-14T11:38:58;4.43;;;1.30;;
65737;SDS011;52478;51.844;6.582;2024-02-14T11:41:26;6.55;;;1.40;;
65737;SDS011;52478;51.844;6.582;2024-02-14T11:43:53;4.00;;;1.30;;
65737;SDS011;52478;51.844;6.582;2024-02-14T11:46:21;4.40;;;1.48;;
65737;SDS011;52478;51.844;6.582;2024-02-14T11:48:48;4.72;;;1.40;;
65737;SDS011;52478;51.844;6.582;2024-02-14T11:51:15;4.18;;;1.25;;
65737;SDS011;52478;51.844;6.582;2024-02-14T11:53:41;3.38;;;1.38;;
65737;SDS011;52478;51.844;6.582;2024-02-14T11:56:08;4.25;;;1.30;;
65737;SDS011;52478;51.844;6.582;2024-02-14T11:58:34;4.38;;;1.42;;
65737;SDS011;52478;51.844;6.582;2024-02-14T12:01:02;6.60;;;1.45;;
65737;SDS011;52478;51.844;6.582;2024-02-14T12:03:31;5.00;;;1.30;;
65737;SDS011;52478;51.844;6.582;2024-02-14T12:06:00;4.82;;;1.20;;
65737;SDS011;52478;51.844;6.582;2024-02-14T12:08:28;3.83;;;1.30;;
65737;SDS011;52478;51.844;6.582;2024-02-14T12:10:55;4.10;;;1.20;;
65737;SDS011;52478;51.844;6.582;2024-02-14T12:13:21;3.92;;;1.45;;
65737;SDS011;52478;51.844;6.582;2024-02-14T12:15:48;4.13;;;1.40;;
65737;SDS011;52478;51.844;6.582;2024-02-14T12:18:16;3.63;;;1.30;;
65737;SDS011;52478;51.844;6.582;2024-02-14T12:20:45;3.38;;;1.02;;
65737;SDS011;52478;51.844;6.582;2024-02-14T12:23:14;4.53;;;1.40;;
65737;SDS011;52478;51.844;6.582;2024-02-14T12:25:42;4.28;;;1.40;;
65737;SDS011;52478;51.844;6.582;2024-02-14T12:28:12;4.78;;;1.30;;
65737;SDS011;52478;51.844;6.582;2024-02-14T12:30:43;2.95;;;1.15;;
65737;SDS011;52478;51.844;6.582;2024-02-14T12:33:11;4.22;;;1.40;;
65737;SDS011;52478;51.844;6.582;2024-02-14T12:35:40;4.07;;;1.20;;
65737;SDS011;52478;51.844;6.582;2024-02-14T12:38:10;4.60;;;1.20;;
65737;SDS011;52478;51.844;6.582;2024-02-14T12:40:37;4.72;;;1.40;;
65737;SDS011;52478;51.844;6.582;2024-02-14T12:43:06;5.55;;;1.42;;
65737;SDS011;52478;51.844;6.582;2024-02-14T12:45:33;4.15;;;1.20;;
65737;SDS011;52478;51.844;6.582;2024-02-14T12:48:00;4.18;;;1.40;;
65737;SDS011;52478;51.844;6.582;2024-02-14T12:50:26;4.65;;;1.50;;
65737;SDS011;52478;51.844;6.582;2024-02-14T12:52:53;3.65;;;1.20;;
65737;SDS011;52478;51.844;6.582;2024-02-14T12:55:22;5.45;;;1.20;;
65737;SDS011;52478;51.844;6.582;2024-02-14T12:57:50;4.32;;;1.15;;
65737;SDS011;52478;51.844;6.582;2024-02-14T13:00:17;3.88;;;1.15;;
65737;SDS011;52478;51.844;6.582;2024-02-14T13:02:44;3.72;;;1.30;;
65737;SDS011;52478;51.844;6.582;2024-02-14T13:05:11;4.00;;;1.30;;
65737;SDS011;52478;51.844;6.582;2024-02-14T13:07:37;4.07;;;1.40;;
65737;SDS011;52478;51.844;6.582;2024-02-14T13:10:04;4.57;;;1.20;;
65737;SDS011;52478;51.844;6.582;2024-02-14T13:12:34;4.28;;;1.23;;
65737;SDS011;52478;51.844;6.582;2024-02-14T13:15:01;6.40;;;1.20;;
65737;SDS011;52478;51.844;6.582;2024-02-14T13:17:28;4.00;;;1.45;;
65737;SDS011;52478;51.844;6.582;2024-02-14T13:19:54;3.65;;;1.20;;
65737;SDS011;52478;51.844;6.582;2024-02-14T13:22:21;4.18;;;1.40;;
65737;SDS011;52478;51.844;6.582;2024-02-14T13:24:48;4.68;;;1.25;;
65737;SDS011;52478;51.844;6.582;2024-02-14T13:27:15;4.30;;;1.30;;
65737;SDS011;52478;51.844;6.582;2024-02-14T13:29:43;3.75;;;1.20;;
65737;SDS011;52478;51.844;6.582;2024-02-14T13:32:09;4.10;;;1.15;;
65737;SDS011;52478;51.844;6.582;2024-02-14T13:34:36;4.65;;;1.25;;
65737;SDS011;52478;51.844;6.582;2024-02-14T13:37:03;4.82;;;1.40;;
65737;SDS011;52478;51.844;6.582;2024-02-14T13:39:30;3.03;;;1.02;;
65737;SDS011;52478;51.844;6.582;2024-02-14T13:41:57;3.72;;;1.08;;
65737;SDS011;52478;51.844;6.582;2024-02-14T13:44:25;4.13;;;1.05;;
65737;SDS011;52478;51.844;6.582;2024-02-14T13:46:53;4.93;;;1.13;;
65737;SDS011;52478;51.844;6.582;2024-02-14T13:49:19;3.80;;;1.30;;
65737;SDS011;52478;51.844;6.582;2024-02-14T13:51:47;3.08;;;1.02;;
65737;SDS011;52478;51.844;6.582;2024-02-14T13:54:15;2.83;;;1.10;;
65737;SDS011;52478;51.844;6.582;2024-02-14T13:56:41;3.85;;;1.40;;
65737;SDS011;52478;51.844;6.582;2024-02-14T13:59:08;3.40;;;1.15;;
65737;SDS011;52478;51.844;6.582;2024-02-14T14:01:34;3.53;;;1.27;;
65737;SDS011;52478;51.844;6.582;2024-02-14T14:06:30;4.75;;;1.30;;
65737;SDS011;52478;51.844;6.582;2024-02-14T14:08:57;3.95;;;1.30;;
65737;SDS011;52478;51.844;6.582;2024-02-14T14:11:24;3.42;;;1.40;;
65737;SDS011;52478;51.844;6.582;2024-02-14T14:13:50;3.38;;;1.20;;
65737;SDS011;52478;51.844;6.582;2024-02-14T14:16:17;4.32;;;1.02;;
65737;SDS011;52478;51.844;6.582;2024-02-14T14:18:46;3.97;;;1.38;;
65737;SDS011;52478;51.844;6.582;2024-02-14T14:21:14;9.43;;;1.40;;
65737;SDS011;52478;51.844;6.582;2024-02-14T14:23:41;5.75;;;1.27;;
65737;SDS011;52478;51.844;6.582;2024-02-14T14:26:08;5.15;;;1.38;;
65737;SDS011;52478;51.844;6.582;2024-02-14T14:28:34;6.30;;;1.58;;
65737;SDS011;52478;51.844;6.582;2024-02-14T14:31:01;5.95;;;1.73;;
65737;SDS011;52478;51.844;6.582;2024-02-14T14:33:27;7.30;;;1.75;;
65737;SDS011;52478;51.844;6.582;2024-02-14T14:35:55;6.07;;;1.33;;
65737;SDS011;52478;51.844;6.582;2024-02-14T14:38:23;5.00;;;1.48;;
65737;SDS011;52478;51.844;6.582;2024-02-14T14:40:51;5.65;;;1.35;;
65737;SDS011;52478;51.844;6.582;2024-02-14T14:43:20;8.38;;;1.50;;
65737;SDS011;52478;51.844;6.582;2024-02-14T14:45:47;6.25;;;1.83;;
65737;SDS011;52478;51.844;6.582;2024-02-14T14:48:14;4.32;;;1.20;;
65737;SDS011;52478;51.844;6.582;2024-02-14T14:50:41;6.47;;;1.50;;
65737;SDS011;52478;51.844;6.582;2024-02-14T14:53:08;4.50;;;1.08;;
65737;SDS011;52478;51.844;6.582;2024-02-14T14:55:50;5.50;;;1.50;;
65737;SDS011;52478;51.844;6.582;2024-02-14T14:58:17;4.10;;;1.20;;
65737;SDS011;52478;51.844;6.582;2024-02-14T15:00:44;4.03;;;1.10;;
65737;SDS011;52478;51.844;6.582;2024-02-14T15:03:10;10.80;;;1.65;;
65737;SDS011;52478;51.844;6.582;2024-02-14T15:05:37;4.22;;;1.20;;